sensor_id;sensor_type;location;lat;lon;timestamp;P1;durP1;ratioP1;P2;durP2;ratioP2
2542;SDS011;1116;51.502;7.414;2023-07-29T00:02:17;6.00;;;5.50;;
2542;SDS011;1116;51.502;7.414;2023-07-29T00:04:51;6.83;;;6.23;;
2542;SDS011;1116;51.502;7.414;2023-07-29T00:07:22;7.10;;;6.50;;
2542;SDS011;1116;51.502;7.414;2023-07-29T00:09:52;7.23;;;6.53;;
2542;SDS011;1116;51.502;7.414;2023-07-29T00:12:24;7.97;;;5.90;;
2542;SDS011;1116;51.502;7.414;2023-07-29T00:14:55;7.37;;;6.77;;
2542;SDS011;1116;51.502;7.414;2023-07-29T00:17:26;7.13;;;6.53;;
2542;SDS011;1116;51.502;7.414;2023-07-29T00:19:59;7.50;;;6.90;;
2542;SDS011;1116;51.502;7.414;2023-07-29T00:22:34;6.83;;;6.13;;
2542;SDS011;1116;51.502;7.414;2023-07-29T00:25:06;6.93;;;6.40;;
2542;SDS011;1116;51.502;7.414;2023-07-29T00:27:37;6.03;;;5.50;;
2542;SDS011;1116;51.502;7.414;2023-07-29T00:30:09;6.10;;;5.50;;
2542;SDS011;1116;51.502;7.414;2023-07-29T00:32:41;5.03;;;4.63;;
2542;SDS011;1116;51.502;7.414;2023-07-29T00:35:14;5.87;;;5.47;;
2542;SDS011;1116;51.502;7.414;2023-07-29T00:37:46;5.70;;;5.20;;
2542;SDS011;1116;51.502;7.414;2023-07-29T00:40:19;5.93;;;5.33;;
2542;SDS011;1116;51.502;7.414;2023-07-29T00:42:51;6.03;;;5.53;;
2542;SDS011;1116;51.502;7.414;2023-07-29T00:45:24;6.03;;;5.53;;
2542;SDS011;1116;51.502;7.414;2023-07-29T00:48:03;6.73;;;5.73;;
2542;SDS011;1116;51.502;7.414;2023-07-29T00:50:42;6.43;;;5.83;;
2542;SDS011;1116;51.502;7.414;2023-07-29T00:53:14;6.07;;;5.57;;
2542;SDS011;1116;51.502;7.414;2023-07-29T00:55:45;5.90;;;5.50;;
2542;SDS011;1116;51.502;7.414;2023-07-29T00:58:17;5.40;;;5.00;;
2542;SDS011;1116;51.502;7.414;2023-07-29T01:00:50;6.33;;;5.80;;
2542;SDS011;1116;51.502;7.414;2023-07-29T01:03:22;6.97;;;6.27;;
2542;SDS011;1116;51.502;7.414;2023-07-29T01:05:59;6.17;;;5.67;;
2542;SDS011;1116;51.502;7.414;2023-07-29T01:08:43;5.50;;;5.10;;
2542;SDS011;1116;51.502;7.414;2023-07-29T01:11:20;5.83;;;5.33;;
2542;SDS011;1116;51.502;7.414;2023-07-29T01:14:04;6.17;;;5.73;;
2542;SDS011;1116;51.502;7.414;2023-07-29T01:16:41;6.13;;;5.63;;
2542;SDS011;1116;51.502;7.414;2023-07-29T01:19:20;7.80;;;5.60;;
2542;SDS011;1116;51.502;7.414;2023-07-29T01:22:05;6.20;;;5.60;;
2542;SDS011;1116;51.502;7.414;2023-07-29T01:24:40;5.73;;;5.27;;
2542;SDS011;1116;51.502;7.414;2023-07-29T01:27:11;7.43;;;5.00;;
2542;SDS011;1116;51.502;7.414;2023-07-29T01:29:42;5.87;;;4.87;;
2542;SDS011;1116;51.502;7.414;2023-07-29T01:32:14;6.70;;;4.90;;
2542;SDS011;1116;51.502;7.414;2023-07-29T01:34:48;4.47;;;4.17;;
2542;SDS011;1116;51.502;7.414;2023-07-29T01:37:26;4.47;;;4.07;;
2542;SDS011;1116;51.502;7.414;2023-07-29T01:40:03;4.37;;;3.97;;
2542;SDS011;1116;51.502;7.414;2023-07-29T01:42:35;4.67;;;4.13;;
2542;SDS011;1116;51.502;7.414;2023-07-29T01:45:06;6.30;;;3.27;;
2542;SDS011;1116;51.502;7.414;2023-07-29T01:47:38;3.30;;;3.10;;
2542;SDS011;1116;51.502;7.414;2023-07-29T01:50:10;3.60;;;3.30;;
2542;SDS011;1116;51.502;7.414;2023-07-29T01:52:41;3.30;;;3.00;;
2542;SDS011;1116;51.502;7.414;2023-07-29T01:55:18;3.77;;;3.47;;
2542;SDS011;1116;51.502;7.414;2023-07-29T01:57:49;2.90;;;2.70;;
2542;SDS011;1116;51.502;7.414;2023-07-29T02:00:20;3.43;;;3.23;;
2542;SDS011;1116;51.502;7.414;2023-07-29T02:02:51;3.33;;;3.13;;
2542;SDS011;1116;51.502;7.414;2023-07-29T02:05:22;3.70;;;3.40;;
2542;SDS011;1116;51.502;7.414;2023-07-29T02:07:53;3.50;;;3.20;;
2542;SDS011;1116;51.502;7.414;2023-07-29T02:10:27;4.40;;;3.10;;
2542;SDS011;1116;51.502;7.414;2023-07-29T02:12:58;5.07;;;3.37;;
2542;SDS011;1116;51.502;7.414;2023-07-29T02:15:29;4.63;;;3.17;;
2542;SDS011;1116;51.502;7.414;2023-07-29T02:18:00;3.40;;;3.10;;
2542;SDS011;1116;51.502;7.414;2023-07-29T02:20:31;3.60;;;3.30;;
2542;SDS011;1116;51.502;7.414;2023-07-29T02:23:02;3.40;;;3.10;;
2542;SDS011;1116;51.502;7.414;2023-07-29T02:25:37;4.93;;;3.30;;
2542;SDS011;1116;51.502;7.414;2023-07-29T02:28:08;7.50;;;3.00;;
2542;SDS011;1116;51.502;7.414;2023-07-29T02:30:40;3.90;;;3.23;;
2542;SDS011;1116;51.502;7.414;2023-07-29T02:33:17;3.97;;;3.10;;
2542;SDS011;1116;51.502;7.414;2023-07-29T02:35:48;3.50;;;3.20;;
2542;SDS011;1116;51.502;7.414;2023-07-29T02:38:19;3.33;;;3.03;;
2542;SDS011;1116;51.502;7.414;2023-07-29T02:40:52;4.20;;;3.60;;
2542;SDS011;1116;51.502;7.414;2023-07-29T02:43:23;3.00;;;2.80;;
2542;SDS011;1116;51.502;7.414;2023-07-29T02:45:54;3.77;;;3.13;;
2542;SDS011;1116;51.502;7.414;2023-07-29T02:48:25;3.10;;;2.90;;
2542;SDS011;1116;51.502;7.414;2023-07-29T02:50:56;4.27;;;2.83;;
2542;SDS011;1116;51.502;7.414;2023-07-29T02:53:27;3.13;;;2.93;;
2542;SDS011;1116;51.502;7.414;2023-07-29T02:56:01;3.50;;;3.20;;
2542;SDS011;1116;51.502;7.414;2023-07-29T02:58:32;3.63;;;3.30;;
2542;SDS011;1116;51.502;7.414;2023-07-29T03:01:04;5.00;;;3.00;;
2542;SDS011;1116;51.502;7.414;2023-07-29T03:03:36;3.67;;;3.37;;
2542;SDS011;1116;51.502;7.414;2023-07-29T03:06:08;3.40;;;3.20;;
2542;SDS011;1116;51.502;7.414;2023-07-29T03:08:39;3.23;;;3.03;;
2542;SDS011;1116;51.502;7.414;2023-07-29T03:11:13;5.30;;;3.80;;
2542;SDS011;1116;51.502;7.414;2023-07-29T03:13:45;5.30;;;4.37;;
2542;SDS011;1116;51.502;7.414;2023-07-29T03:16:17;5.20;;;3.70;;
2542;SDS011;1116;51.502;7.414;2023-07-29T03:18:48;3.83;;;3.53;;
2542;SDS011;1116;51.502;7.414;2023-07-29T03:21:19;4.37;;;3.97;;
2542;SDS011;1116;51.502;7.414;2023-07-29T03:23:51;3.60;;;3.40;;
2542;SDS011;1116;51.502;7.414;2023-07-29T03:26:25;3.87;;;3.57;;
2542;SDS011;1116;51.502;7.414;2023-07-29T03:28:56;3.80;;;3.50;;
2542;SDS011;1116;51.502;7.414;2023-07-29T03:31:27;5.27;;;3.43;;
2542;SDS011;1116;51.502;7.414;2023-07-29T03:33:58;5.00;;;3.47;;
2542;SDS011;1116;51.502;7.414;2023-07-29T03:36:28;5.27;;;3.93;;
2542;SDS011;1116;51.502;7.414;2023-07-29T03:39:00;4.83;;;4.43;;
2542;SDS011;1116;51.502;7.414;2023-07-29T03:41:33;4.30;;;4.00;;
2542;SDS011;1116;51.502;7.414;2023-07-29T03:44:04;4.10;;;3.80;;
2542;SDS011;1116;51.502;7.414;2023-07-29T03:46:35;4.40;;;4.00;;
2542;SDS011;1116;51.502;7.414;2023-07-29T03:49:07;4.30;;;3.90;;
2542;SDS011;1116;51.502;7.414;2023-07-29T03:51:38;4.10;;;3.73;;
2542;SDS011;1116;51.502;7.414;2023-07-29T03:54:09;6.57;;;4.20;;
2542;SDS011;1116;51.502;7.414;2023-07-29T03:56:42;5.13;;;4.73;;
2542;SDS011;1116;51.502;7.414;2023-07-29T03:59:13;6.07;;;4.80;;
2542;SDS011;1116;51.502;7.414;2023-07-29T04:01:44;7.10;;;4.70;;
2542;SDS011;1116;51.502;7.414;2023-07-29T04:04:15;5.77;;;5.13;;
2542;SDS011;1116;51.502;7.414;2023-07-29T04:06:46;5.10;;;4.60;;
2542;SDS011;1116;51.502;7.414;2023-07-29T04:09:17;4.73;;;4.20;;
2542;SDS011;1116;51.502;7.414;2023-07-29T04:11:51;6.30;;;4.33;;
2542;SDS011;1116;51.502;7.414;2023-07-29T04:14:22;4.40;;;4.10;;
2542;SDS011;1116;51.502;7.414;2023-07-29T04:16:53;4.73;;;4.17;;
2542;SDS011;1116;51.502;7.414;2023-07-29T04:19:24;4.00;;;3.60;;
2542;SDS011;1116;51.502;7.414;2023-07-29T04:21:55;4.43;;;4.10;;
2542;SDS011;1116;51.502;7.414;2023-07-29T04:24:25;5.80;;;3.67;;
2542;SDS011;1116;51.502;7.414;2023-07-29T04:26:59;3.87;;;3.57;;
2542;SDS011;1116;51.502;7.414;2023-07-29T04:29:30;3.83;;;3.53;;
2542;SDS011;1116;51.502;7.414;2023-07-29T04:32:03;4.83;;;4.27;;
2542;SDS011;1116;51.502;7.414;2023-07-29T04:34:35;4.37;;;3.97;;
2542;SDS011;1116;51.502;7.414;2023-07-29T04:37:06;6.90;;;4.77;;
2542;SDS011;1116;51.502;7.414;2023-07-29T04:39:37;5.20;;;4.70;;
2542;SDS011;1116;51.502;7.414;2023-07-29T04:42:11;5.33;;;4.83;;
2542;SDS011;1116;51.502;7.414;2023-07-29T04:44:41;6.30;;;5.23;;
2542;SDS011;1116;51.502;7.414;2023-07-29T04:47:15;4.90;;;4.60;;
2542;SDS011;1116;51.502;7.414;2023-07-29T04:49:47;5.40;;;5.00;;
2542;SDS011;1116;51.502;7.414;2023-07-29T04:52:18;5.40;;;5.00;;
2542;SDS011;1116;51.502;7.414;2023-07-29T04:54:49;5.60;;;5.10;;
2542;SDS011;1116;51.502;7.414;2023-07-29T04:57:23;5.87;;;5.37;;
2542;SDS011;1116;51.502;7.414;2023-07-29T04:59:54;5.80;;;5.37;;
2542;SDS011;1116;51.502;7.414;2023-07-29T05:02:25;5.07;;;4.67;;
2542;SDS011;1116;51.502;7.414;2023-07-29T05:04:56;5.37;;;4.97;;
2542;SDS011;1116;51.502;7.414;2023-07-29T05:07:27;7.70;;;6.10;;
2542;SDS011;1116;51.502;7.414;2023-07-29T05:09:58;5.67;;;5.27;;
2542;SDS011;1116;51.502;7.414;2023-07-29T05:12:32;6.80;;;6.20;;
2542;SDS011;1116;51.502;7.414;2023-07-29T05:15:03;7.20;;;6.60;;
2542;SDS011;1116;51.502;7.414;2023-07-29T05:17:35;7.53;;;6.83;;
2542;SDS011;1116;51.502;7.414;2023-07-29T05:20:07;7.20;;;6.63;;
2542;SDS011;1116;51.502;7.414;2023-07-29T05:22:39;7.60;;;6.80;;
2542;SDS011;1116;51.502;7.414;2023-07-29T05:25:10;7.57;;;6.87;;
2542;SDS011;1116;51.502;7.414;2023-07-29T05:27:43;8.00;;;6.60;;
2542;SDS011;1116;51.502;7.414;2023-07-29T05:30:14;8.73;;;6.80;;
2542;SDS011;1116;51.502;7.414;2023-07-29T05:32:45;7.80;;;7.10;;
2542;SDS011;1116;51.502;7.414;2023-07-29T05:35:16;7.33;;;6.67;;
2542;SDS011;1116;51.502;7.414;2023-07-29T05:37:48;8.23;;;6.60;;
2542;SDS011;1116;51.502;7.414;2023-07-29T05:40:18;8.13;;;7.37;;
2542;SDS011;1116;51.502;7.414;2023-07-29T05:42:52;10.37;;;6.80;;
2542;SDS011;1116;51.502;7.414;2023-07-29T05:45:23;8.27;;;7.47;;
2542;SDS011;1116;51.502;7.414;2023-07-29T05:47:54;7.77;;;7.07;;
2542;SDS011;1116;51.502;7.414;2023-07-29T05:50:25;7.27;;;6.77;;
2542;SDS011;1116;51.502;7.414;2023-07-29T05:52:56;7.20;;;6.50;;
2542;SDS011;1116;51.502;7.414;2023-07-29T05:55:27;8.10;;;7.50;;
2542;SDS011;1116;51.502;7.414;2023-07-29T05:58:00;8.30;;;7.60;;
2542;SDS011;1116;51.502;7.414;2023-07-29T06:00:31;8.77;;;7.90;;
2542;SDS011;1116;51.502;7.414;2023-07-29T06:03:02;8.70;;;8.00;;
2542;SDS011;1116;51.502;7.414;2023-07-29T06:05:34;9.33;;;8.60;;
2542;SDS011;1116;51.502;7.414;2023-07-29T06:08:05;10.20;;;9.20;;
2542;SDS011;1116;51.502;7.414;2023-07-29T06:10:36;10.20;;;9.17;;
2542;SDS011;1116;51.502;7.414;2023-07-29T06:13:09;10.60;;;9.50;;
2542;SDS011;1116;51.502;7.414;2023-07-29T06:15:40;10.27;;;9.27;;
2542;SDS011;1116;51.502;7.414;2023-07-29T06:18:11;11.17;;;10.07;;
2542;SDS011;1116;51.502;7.414;2023-07-29T06:20:42;10.67;;;9.67;;
2542;SDS011;1116;51.502;7.414;2023-07-29T06:23:13;14.10;;;10.37;;
2542;SDS011;1116;51.502;7.414;2023-07-29T06:25:44;12.03;;;11.03;;
2542;SDS011;1116;51.502;7.414;2023-07-29T06:28:18;13.47;;;11.27;;
2542;SDS011;1116;51.502;7.414;2023-07-29T06:30:49;13.07;;;11.67;;
2542;SDS011;1116;51.502;7.414;2023-07-29T06:33:20;12.97;;;11.83;;
2542;SDS011;1116;51.502;7.414;2023-07-29T06:35:51;12.07;;;11.07;;
2542;SDS011;1116;51.502;7.414;2023-07-29T06:38:22;11.93;;;10.93;;
2542;SDS011;1116;51.502;7.414;2023-07-29T06:40:53;10.00;;;9.10;;
2542;SDS011;1116;51.502;7.414;2023-07-29T06:43:26;9.70;;;8.90;;
2542;SDS011;1116;51.502;7.414;2023-07-29T06:45:57;5.97;;;5.47;;
2542;SDS011;1116;51.502;7.414;2023-07-29T06:48:28;5.80;;;4.90;;
2542;SDS011;1116;51.502;7.414;2023-07-29T06:50:59;6.10;;;4.63;;
2542;SDS011;1116;51.502;7.414;2023-07-29T06:53:30;4.53;;;4.10;;
2542;SDS011;1116;51.502;7.414;2023-07-29T06:56:01;4.67;;;4.27;;
2542;SDS011;1116;51.502;7.414;2023-07-29T06:58:35;4.70;;;4.30;;
2542;SDS011;1116;51.502;7.414;2023-07-29T07:01:06;4.50;;;4.10;;
2542;SDS011;1116;51.502;7.414;2023-07-29T07:03:40;4.37;;;4.07;;
2542;SDS011;1116;51.502;7.414;2023-07-29T07:06:11;4.67;;;3.33;;
2542;SDS011;1116;51.502;7.414;2023-07-29T07:08:42;4.23;;;3.83;;
2542;SDS011;1116;51.502;7.414;2023-07-29T07:11:13;3.40;;;3.13;;
2542;SDS011;1116;51.502;7.414;2023-07-29T07:13:47;3.50;;;3.20;;
2542;SDS011;1116;51.502;7.414;2023-07-29T07:16:18;4.43;;;2.90;;
2542;SDS011;1116;51.502;7.414;2023-07-29T07:18:50;3.03;;;2.83;;
2542;SDS011;1116;51.502;7.414;2023-07-29T07:21:21;3.60;;;2.97;;
2542;SDS011;1116;51.502;7.414;2023-07-29T07:23:52;2.80;;;2.60;;
2542;SDS011;1116;51.502;7.414;2023-07-29T07:26:23;2.97;;;2.47;;
2542;SDS011;1116;51.502;7.414;2023-07-29T07:28:57;2.53;;;2.23;;
2542;SDS011;1116;51.502;7.414;2023-07-29T07:31:32;2.53;;;2.33;;
2542;SDS011;1116;51.502;7.414;2023-07-29T07:34:04;5.70;;;2.10;;
2542;SDS011;1116;51.502;7.414;2023-07-29T07:36:35;2.40;;;2.20;;
2542;SDS011;1116;51.502;7.414;2023-07-29T07:39:11;2.20;;;2.00;;
2542;SDS011;1116;51.502;7.414;2023-07-29T07:41:42;2.60;;;2.30;;
2542;SDS011;1116;51.502;7.414;2023-07-29T07:44:16;2.53;;;2.33;;
2542;SDS011;1116;51.502;7.414;2023-07-29T07:46:47;2.60;;;1.80;;
2542;SDS011;1116;51.502;7.414;2023-07-29T07:49:18;2.43;;;2.27;;
2542;SDS011;1116;51.502;7.414;2023-07-29T07:51:52;3.10;;;2.20;;
2542;SDS011;1116;51.502;7.414;2023-07-29T07:55:19;3.80;;;2.27;;
2542;SDS011;1116;51.502;7.414;2023-07-29T07:57:50;2.07;;;1.87;;
2542;SDS011;1116;51.502;7.414;2023-07-29T08:00:25;2.43;;;2.23;;
2542;SDS011;1116;51.502;7.414;2023-07-29T08:02:56;2.20;;;2.00;;
2542;SDS011;1116;51.502;7.414;2023-07-29T08:05:27;3.47;;;2.10;;
2542;SDS011;1116;51.502;7.414;2023-07-29T08:07:59;2.30;;;1.90;;
2542;SDS011;1116;51.502;7.414;2023-07-29T08:10:31;1.67;;;1.57;;
2542;SDS011;1116;51.502;7.414;2023-07-29T08:13:02;2.00;;;1.80;;
2542;SDS011;1116;51.502;7.414;2023-07-29T08:15:35;3.10;;;1.93;;
2542;SDS011;1116;51.502;7.414;2023-07-29T08:18:07;1.90;;;1.80;;
2542;SDS011;1116;51.502;7.414;2023-07-29T08:20:38;2.50;;;1.77;;
2542;SDS011;1116;51.502;7.414;2023-07-29T08:23:08;3.13;;;2.07;;
2542;SDS011;1116;51.502;7.414;2023-07-29T08:25:39;2.53;;;1.90;;
2542;SDS011;1116;51.502;7.414;2023-07-29T08:28:10;2.00;;;1.80;;
2542;SDS011;1116;51.502;7.414;2023-07-29T08:30:44;2.37;;;1.73;;
2542;SDS011;1116;51.502;7.414;2023-07-29T08:33:15;2.13;;;1.93;;
2542;SDS011;1116;51.502;7.414;2023-07-29T08:35:46;2.97;;;2.30;;
2542;SDS011;1116;51.502;7.414;2023-07-29T08:38:17;2.27;;;1.80;;
2542;SDS011;1116;51.502;7.414;2023-07-29T08:40:49;2.97;;;2.53;;
2542;SDS011;1116;51.502;7.414;2023-07-29T08:43:24;2.20;;;2.03;;
2542;SDS011;1116;51.502;7.414;2023-07-29T08:46:02;4.30;;;2.30;;
2542;SDS011;1116;51.502;7.414;2023-07-29T08:48:36;3.20;;;2.47;;
2542;SDS011;1116;51.502;7.414;2023-07-29T08:51:11;3.00;;;2.80;;
2542;SDS011;1116;51.502;7.414;2023-07-29T08:53:42;2.70;;;2.50;;
2542;SDS011;1116;51.502;7.414;2023-07-29T08:56:13;2.77;;;2.57;;
2542;SDS011;1116;51.502;7.414;2023-07-29T08:58:45;3.37;;;2.77;;
2542;SDS011;1116;51.502;7.414;2023-07-29T09:01:20;2.80;;;2.50;;
2542;SDS011;1116;51.502;7.414;2023-07-29T09:03:51;2.30;;;2.10;;
2542;SDS011;1116;51.502;7.414;2023-07-29T09:06:22;2.73;;;2.53;;
2542;SDS011;1116;51.502;7.414;2023-07-29T09:08:55;3.10;;;2.00;;
2542;SDS011;1116;51.502;7.414;2023-07-29T09:11:26;2.60;;;2.40;;
2542;SDS011;1116;51.502;7.414;2023-07-29T09:13:58;2.43;;;2.23;;
2542;SDS011;1116;51.502;7.414;2023-07-29T09:16:32;1.30;;;1.20;;
2542;SDS011;1116;51.502;7.414;2023-07-29T09:19:04;1.77;;;1.17;;
2542;SDS011;1116;51.502;7.414;2023-07-29T09:21:38;2.50;;;1.60;;
2542;SDS011;1116;51.502;7.414;2023-07-29T09:24:09;1.43;;;1.33;;
2542;SDS011;1116;51.502;7.414;2023-07-29T09:26:40;1.60;;;1.50;;
2542;SDS011;1116;51.502;7.414;2023-07-29T09:29:21;1.60;;;1.40;;
2542;SDS011;1116;51.502;7.414;2023-07-29T09:31:55;1.50;;;1.40;;
2542;SDS011;1116;51.502;7.414;2023-07-29T09:34:50;1.80;;;1.70;;
2542;SDS011;1116;51.502;7.414;2023-07-29T09:37:22;3.13;;;1.97;;
2542;SDS011;1116;51.502;7.414;2023-07-29T09:39:53;1.67;;;1.57;;
2542;SDS011;1116;51.502;7.414;2023-07-29T09:42:24;2.17;;;2.07;;
2542;SDS011;1116;51.502;7.414;2023-07-29T09:44:55;2.60;;;2.20;;
2542;SDS011;1116;51.502;7.414;2023-07-29T09:47:29;2.90;;;1.80;;
2542;SDS011;1116;51.502;7.414;2023-07-29T09:50:01;2.10;;;1.87;;
2542;SDS011;1116;51.502;7.414;2023-07-29T09:52:32;1.67;;;1.57;;
2542;SDS011;1116;51.502;7.414;2023-07-29T09:55:03;1.43;;;1.33;;
2542;SDS011;1116;51.502;7.414;2023-07-29T09:57:35;1.30;;;1.20;;
2542;SDS011;1116;51.502;7.414;2023-07-29T10:00:07;2.73;;;1.77;;
2542;SDS011;1116;51.502;7.414;2023-07-29T10:02:44;1.60;;;1.13;;
2542;SDS011;1116;51.502;7.414;2023-07-29T10:05:15;1.40;;;1.30;;
2542;SDS011;1116;51.502;7.414;2023-07-29T10:07:47;1.50;;;1.40;;
2542;SDS011;1116;51.502;7.414;2023-07-29T10:10:19;1.77;;;1.60;;
2542;SDS011;1116;51.502;7.414;2023-07-29T10:12:51;2.17;;;1.53;;
2542;SDS011;1116;51.502;7.414;2023-07-29T10:15:23;1.63;;;1.50;;
2542;SDS011;1116;51.502;7.414;2023-07-29T10:17:58;1.97;;;1.60;;
2542;SDS011;1116;51.502;7.414;2023-07-29T10:20:30;1.73;;;1.60;;
2542;SDS011;1116;51.502;7.414;2023-07-29T10:23:02;1.57;;;1.47;;
2542;SDS011;1116;51.502;7.414;2023-07-29T10:25:41;2.00;;;1.90;;
2542;SDS011;1116;51.502;7.414;2023-07-29T10:28:18;2.03;;;1.83;;
2542;SDS011;1116;51.502;7.414;2023-07-29T10:30:55;1.80;;;1.70;;
2542;SDS011;1116;51.502;7.414;2023-07-29T10:33:29;2.00;;;1.90;;
2542;SDS011;1116;51.502;7.414;2023-07-29T10:36:03;1.70;;;1.60;;
2542;SDS011;1116;51.502;7.414;2023-07-29T10:38:35;1.60;;;1.50;;
2542;SDS011;1116;51.502;7.414;2023-07-29T10:41:06;1.40;;;1.30;;
2542;SDS011;1116;51.502;7.414;2023-07-29T10:43:37;1.80;;;1.70;;
2542;SDS011;1116;51.502;7.414;2023-07-29T10:46:15;1.40;;;1.30;;
2542;SDS011;1116;51.502;7.414;2023-07-29T10:48:56;1.57;;;1.47;;
2542;SDS011;1116;51.502;7.414;2023-07-29T10:51:28;1.80;;;1.70;;
2542;SDS011;1116;51.502;7.414;2023-07-29T10:54:01;1.83;;;1.60;;
2542;SDS011;1116;51.502;7.414;2023-07-29T10:56:33;1.63;;;1.53;;
2542;SDS011;1116;51.502;7.414;2023-07-29T11:02:11;1.30;;;1.20;;
2542;SDS011;1116;51.502;7.414;2023-07-29T11:04:49;2.20;;;1.70;;
2542;SDS011;1116;51.502;7.414;2023-07-29T11:07:21;2.07;;;1.33;;
2542;SDS011;1116;51.502;7.414;2023-07-29T11:09:58;2.47;;;1.50;;
2542;SDS011;1116;51.502;7.414;2023-07-29T11:12:33;3.13;;;1.50;;
2542;SDS011;1116;51.502;7.414;2023-07-29T11:15:04;1.70;;;1.57;;
2542;SDS011;1116;51.502;7.414;2023-07-29T11:17:45;1.60;;;1.50;;
2542;SDS011;1116;51.502;7.414;2023-07-29T11:20:20;1.60;;;1.50;;
2542;SDS011;1116;51.502;7.414;2023-07-29T11:22:53;1.60;;;1.50;;
2542;SDS011;1116;51.502;7.414;2023-07-29T11:25:25;1.60;;;1.50;;
2542;SDS011;1116;51.502;7.414;2023-07-29T11:27:58;3.20;;;1.47;;
2542;SDS011;1116;51.502;7.414;2023-07-29T11:30:33;1.40;;;1.30;;
2542;SDS011;1116;51.502;7.414;2023-07-29T11:33:04;1.60;;;1.40;;
2542;SDS011;1116;51.502;7.414;2023-07-29T11:35:39;3.07;;;1.10;;
2542;SDS011;1116;51.502;7.414;2023-07-29T11:38:14;1.97;;;1.87;;
2542;SDS011;1116;51.502;7.414;2023-07-29T11:40:56;3.20;;;2.20;;
2542;SDS011;1116;51.502;7.414;2023-07-29T11:43:34;2.47;;;2.07;;
2542;SDS011;1116;51.502;7.414;2023-07-29T11:46:05;2.00;;;1.80;;
2542;SDS011;1116;51.502;7.414;2023-07-29T11:48:36;2.23;;;2.03;;
2542;SDS011;1116;51.502;7.414;2023-07-29T11:51:10;2.40;;;2.20;;
2542;SDS011;1116;51.502;7.414;2023-07-29T11:53:49;1.50;;;1.40;;
2542;SDS011;1116;51.502;7.414;2023-07-29T11:56:20;2.90;;;1.50;;
2542;SDS011;1116;51.502;7.414;2023-07-29T11:58:51;1.80;;;1.40;;
2542;SDS011;1116;51.502;7.414;2023-07-29T12:01:22;1.83;;;1.50;;
2542;SDS011;1116;51.502;7.414;2023-07-29T12:03:56;1.53;;;1.40;;
2542;SDS011;1116;51.502;7.414;2023-07-29T12:06:31;1.30;;;1.20;;
2542;SDS011;1116;51.502;7.414;2023-07-29T12:09:02;2.00;;;1.33;;
2542;SDS011;1116;51.502;7.414;2023-07-29T12:11:35;2.30;;;1.70;;
2542;SDS011;1116;51.502;7.414;2023-07-29T12:14:07;1.70;;;1.10;;
2542;SDS011;1116;51.502;7.414;2023-07-29T12:16:41;2.03;;;1.30;;
2542;SDS011;1116;51.502;7.414;2023-07-29T12:19:13;2.47;;;1.30;;
2542;SDS011;1116;51.502;7.414;2023-07-29T12:21:48;2.50;;;1.30;;
2542;SDS011;1116;51.502;7.414;2023-07-29T12:24:22;2.37;;;1.63;;
2542;SDS011;1116;51.502;7.414;2023-07-29T12:26:56;1.97;;;1.40;;
2542;SDS011;1116;51.502;7.414;2023-07-29T12:29:27;1.50;;;1.40;;
2542;SDS011;1116;51.502;7.414;2023-07-29T12:31:59;2.13;;;1.63;;
2542;SDS011;1116;51.502;7.414;2023-07-29T12:34:31;2.00;;;1.80;;
2542;SDS011;1116;51.502;7.414;2023-07-29T12:37:05;2.33;;;1.60;;
2542;SDS011;1116;51.502;7.414;2023-07-29T12:39:39;1.83;;;1.40;;
2542;SDS011;1116;51.502;7.414;2023-07-29T12:42:11;2.60;;;1.87;;
2542;SDS011;1116;51.502;7.414;2023-07-29T12:44:42;1.90;;;1.20;;
2542;SDS011;1116;51.502;7.414;2023-07-29T12:47:13;2.73;;;1.53;;
2542;SDS011;1116;51.502;7.414;2023-07-29T12:49:44;1.50;;;1.40;;
2542;SDS011;1116;51.502;7.414;2023-07-29T12:52:18;1.80;;;1.53;;
2542;SDS011;1116;51.502;7.414;2023-07-29T12:54:49;1.50;;;1.40;;
2542;SDS011;1116;51.502;7.414;2023-07-29T12:57:20;3.13;;;1.43;;
2542;SDS011;1116;51.502;7.414;2023-07-29T12:59:51;6.23;;;1.70;;
2542;SDS011;1116;51.502;7.414;2023-07-29T13:02:22;1.77;;;1.60;;
2542;SDS011;1116;51.502;7.414;2023-07-29T13:04:53;1.70;;;1.60;;
2542;SDS011;1116;51.502;7.414;2023-07-29T13:07:27;3.00;;;1.40;;
2542;SDS011;1116;51.502;7.414;2023-07-29T13:09:57;1.60;;;1.40;;
2542;SDS011;1116;51.502;7.414;2023-07-29T13:12:29;2.50;;;1.90;;
2542;SDS011;1116;51.502;7.414;2023-07-29T13:15:00;1.87;;;1.53;;
2542;SDS011;1116;51.502;7.414;2023-07-29T13:17:31;2.10;;;1.90;;
2542;SDS011;1116;51.502;7.414;2023-07-29T13:20:03;1.97;;;1.80;;
2542;SDS011;1116;51.502;7.414;2023-07-29T13:22:37;1.93;;;1.43;;
2542;SDS011;1116;51.502;7.414;2023-07-29T13:25:08;2.53;;;1.40;;
2542;SDS011;1116;51.502;7.414;2023-07-29T13:27:39;2.57;;;1.50;;
2542;SDS011;1116;51.502;7.414;2023-07-29T13:30:10;1.80;;;1.70;;
2542;SDS011;1116;51.502;7.414;2023-07-29T13:32:41;3.20;;;2.30;;
2542;SDS011;1116;51.502;7.414;2023-07-29T13:35:12;3.30;;;1.50;;
2542;SDS011;1116;51.502;7.414;2023-07-29T13:37:46;4.80;;;1.87;;
2542;SDS011;1116;51.502;7.414;2023-07-29T13:40:19;1.90;;;1.80;;
2542;SDS011;1116;51.502;7.414;2023-07-29T13:42:52;4.63;;;1.80;;
2542;SDS011;1116;51.502;7.414;2023-07-29T13:45:23;2.33;;;2.13;;
2542;SDS011;1116;51.502;7.414;2023-07-29T13:47:54;2.30;;;2.10;;
2542;SDS011;1116;51.502;7.414;2023-07-29T13:50:25;2.63;;;2.20;;
2542;SDS011;1116;51.502;7.414;2023-07-29T13:52:59;2.57;;;2.20;;
2542;SDS011;1116;51.502;7.414;2023-07-29T13:55:30;2.17;;;1.97;;
2542;SDS011;1116;51.502;7.414;2023-07-29T13:58:01;2.40;;;2.20;;
2542;SDS011;1116;51.502;7.414;2023-07-29T14:00:32;2.50;;;1.90;;
2542;SDS011;1116;51.502;7.414;2023-07-29T14:03:03;2.53;;;2.17;;
2542;SDS011;1116;51.502;7.414;2023-07-29T14:05:34;2.40;;;2.20;;
2542;SDS011;1116;51.502;7.414;2023-07-29T14:08:08;2.37;;;2.00;;
2542;SDS011;1116;51.502;7.414;2023-07-29T14:10:39;2.40;;;2.20;;
2542;SDS011;1116;51.502;7.414;2023-07-29T14:13:10;1.93;;;1.73;;
2542;SDS011;1116;51.502;7.414;2023-07-29T14:15:41;2.87;;;1.80;;
2542;SDS011;1116;51.502;7.414;2023-07-29T14:18:12;2.53;;;1.90;;
2542;SDS011;1116;51.502;7.414;2023-07-29T14:20:43;3.17;;;1.87;;
2542;SDS011;1116;51.502;7.414;2023-07-29T14:23:17;2.00;;;1.90;;
2542;SDS011;1116;51.502;7.414;2023-07-29T14:25:51;2.43;;;1.80;;
2542;SDS011;1116;51.502;7.414;2023-07-29T14:28:21;5.50;;;2.27;;
2542;SDS011;1116;51.502;7.414;2023-07-29T14:30:56;4.10;;;2.27;;
2542;SDS011;1116;51.502;7.414;2023-07-29T14:33:27;2.43;;;1.77;;
2542;SDS011;1116;51.502;7.414;2023-07-29T14:35:58;4.33;;;2.33;;
2542;SDS011;1116;51.502;7.414;2023-07-29T14:38:33;3.37;;;2.07;;
2542;SDS011;1116;51.502;7.414;2023-07-29T14:41:04;3.13;;;1.90;;
2542;SDS011;1116;51.502;7.414;2023-07-29T14:43:35;5.20;;;2.17;;
2542;SDS011;1116;51.502;7.414;2023-07-29T14:46:06;3.03;;;2.57;;
2542;SDS011;1116;51.502;7.414;2023-07-29T14:48:37;2.93;;;2.53;;
2542;SDS011;1116;51.502;7.414;2023-07-29T14:51:08;2.93;;;2.50;;
2542;SDS011;1116;51.502;7.414;2023-07-29T14:53:42;1.90;;;1.80;;
2542;SDS011;1116;51.502;7.414;2023-07-29T14:56:17;4.20;;;2.20;;
2542;SDS011;1116;51.502;7.414;2023-07-29T14:58:50;2.00;;;1.80;;
2542;SDS011;1116;51.502;7.414;2023-07-29T15:01:21;1.60;;;1.50;;
2542;SDS011;1116;51.502;7.414;2023-07-29T15:03:52;1.57;;;1.47;;
2542;SDS011;1116;51.502;7.414;2023-07-29T15:06:24;1.70;;;1.60;;
2542;SDS011;1116;51.502;7.414;2023-07-29T15:08:57;3.23;;;1.80;;
2542;SDS011;1116;51.502;7.414;2023-07-29T15:11:28;2.00;;;1.60;;
2542;SDS011;1116;51.502;7.414;2023-07-29T15:14:00;1.97;;;1.70;;
2542;SDS011;1116;51.502;7.414;2023-07-29T15:16:31;3.50;;;1.87;;
2542;SDS011;1116;51.502;7.414;2023-07-29T15:19:06;1.30;;;1.20;;
2542;SDS011;1116;51.502;7.414;2023-07-29T15:21:37;1.10;;;1.00;;
2542;SDS011;1116;51.502;7.414;2023-07-29T15:24:11;2.17;;;1.33;;
2542;SDS011;1116;51.502;7.414;2023-07-29T15:26:42;0.93;;;0.93;;
2542;SDS011;1116;51.502;7.414;2023-07-29T15:29:14;2.13;;;1.60;;
2542;SDS011;1116;51.502;7.414;2023-07-29T15:31:45;1.40;;;1.20;;
2542;SDS011;1116;51.502;7.414;2023-07-29T15:34:16;2.30;;;1.37;;
2542;SDS011;1116;51.502;7.414;2023-07-29T15:36:47;1.57;;;1.47;;
2542;SDS011;1116;51.502;7.414;2023-07-29T15:39:21;1.57;;;1.40;;
2542;SDS011;1116;51.502;7.414;2023-07-29T15:41:52;2.07;;;1.30;;
2542;SDS011;1116;51.502;7.414;2023-07-29T15:44:23;2.33;;;1.57;;
2542;SDS011;1116;51.502;7.414;2023-07-29T15:46:54;2.00;;;1.50;;
2542;SDS011;1116;51.502;7.414;2023-07-29T15:49:28;2.43;;;1.73;;
2542;SDS011;1116;51.502;7.414;2023-07-29T15:51:59;1.40;;;1.30;;